sensor_id;sensor_type;location;lat;lon;timestamp;P1;durP1;ratioP1;P2;durP2;ratioP2
26530;SDS011;14201;43.188;24.160;2023-11-21T00:00:16;5.63;;;3.30;;
26530;SDS011;14201;43.188;24.160;2023-11-21T00:02:42;5.80;;;2.97;;
26530;SDS011;14201;43.188;24.160;2023-11-21T00:05:12;5.38;;;2.83;;
26530;SDS011;14201;43.188;24.160;2023-11-21T00:07:42;5.03;;;3.00;;
26530;SDS011;14201;43.188;24.160;2023-11-21T00:10:09;5.95;;;2.95;;
26530;SDS011;14201;43.188;24.160;2023-11-21T00:12:36;6.03;;;2.97;;
26530;SDS011;14201;43.188;24.160;2023-11-21T00:15:02;4.50;;;2.72;;
26530;SDS011;14201;43.188;24.160;2023-11-21T00:17:30;7.60;;;3.05;;
26530;SDS011;14201;43.188;24.160;2023-11-21T00:19:56;4.10;;;2.83;;
26530;SDS011;14201;43.188;24.160;2023-11-21T01:08:32;4.25;;;2.85;;
26530;SDS011;14201;43.188;24.160;2023-11-21T01:10:58;5.65;;;3.20;;
26530;SDS011;14201;43.188;24.160;2023-11-21T01:25:37;5.57;;;3.08;;
26530;SDS011;14201;43.188;24.160;2023-11-21T01:28:03;7.00;;;3.50;;
26530;SDS011;14201;43.188;24.160;2023-11-21T01:37:45;5.70;;;2.45;;
26530;SDS011;14201;43.188;24.160;2023-11-21T01:40:11;5.47;;;2.53;;
26530;SDS011;14201;43.188;24.160;2023-11-21T02:31:29;5.30;;;2.90;;
26530;SDS011;14201;43.188;24.160;2023-11-21T03:34:53;4.75;;;2.65;;
26530;SDS011;14201;43.188;24.160;2023-11-21T03:37:21;3.97;;;2.20;;
26530;SDS011;14201;43.188;24.160;2023-11-21T07:06:38;7.93;;;3.80;;
26530;SDS011;14201;43.188;24.160;2023-11-21T07:21:11;4.55;;;2.65;;
26530;SDS011;14201;43.188;24.160;2023-11-21T07:23:37;4.30;;;2.45;;
26530;SDS011;14201;43.188;24.160;2023-11-21T07:26:03;6.32;;;2.22;;
26530;SDS011;14201;43.188;24.160;2023-11-21T07:30:59;4.32;;;2.28;;
26530;SDS011;14201;43.188;24.160;2023-11-21T07:33:25;5.57;;;1.85;;
26530;SDS011;14201;43.188;24.160;2023-11-21T07:35:51;5.45;;;1.90;;
26530;SDS011;14201;43.188;24.160;2023-11-21T07:38:17;3.30;;;1.65;;
26530;SDS011;14201;43.188;24.160;2023-11-21T07:40:43;3.85;;;1.90;;
26530;SDS011;14201;43.188;24.160;2023-11-21T07:43:08;5.68;;;1.95;;
26530;SDS011;14201;43.188;24.160;2023-11-21T07:45:35;3.40;;;1.58;;
26530;SDS011;14201;43.188;24.160;2023-11-21T07:48:01;3.38;;;1.65;;
26530;SDS011;14201;43.188;24.160;2023-11-21T07:50:30;4.07;;;1.38;;
26530;SDS011;14201;43.188;24.160;2023-11-21T07:52:56;5.07;;;1.65;;
26530;SDS011;14201;43.188;24.160;2023-11-21T07:55:24;4.80;;;1.40;;
26530;SDS011;14201;43.188;24.160;2023-11-21T07:57:50;4.55;;;1.42;;
26530;SDS011;14201;43.188;24.160;2023-11-21T08:00:15;4.57;;;1.58;;
26530;SDS011;14201;43.188;24.160;2023-11-21T08:02:41;5.78;;;1.67;;
26530;SDS011;14201;43.188;24.160;2023-11-21T08:05:07;4.35;;;1.65;;
26530;SDS011;14201;43.188;24.160;2023-11-21T08:07:34;2.95;;;1.70;;
26530;SDS011;14201;43.188;24.160;2023-11-21T08:19:45;5.60;;;1.95;;
26530;SDS011;14201;43.188;24.160;2023-11-21T08:22:14;5.80;;;1.40;;
26530;SDS011;14201;43.188;24.160;2023-11-21T08:24:43;2.70;;;1.50;;
26530;SDS011;14201;43.188;24.160;2023-11-21T08:27:09;3.55;;;1.50;;
26530;SDS011;14201;43.188;24.160;2023-11-21T08:29:35;5.70;;;1.58;;
26530;SDS011;14201;43.188;24.160;2023-11-21T08:32:01;2.83;;;1.60;;
26530;SDS011;14201;43.188;24.160;2023-11-21T08:34:28;2.58;;;1.80;;
26530;SDS011;14201;43.188;24.160;2023-11-21T08:36:54;3.70;;;1.52;;
26530;SDS011;14201;43.188;24.160;2023-11-21T08:39:20;2.15;;;1.30;;
26530;SDS011;14201;43.188;24.160;2023-11-21T08:41:49;6.47;;;2.40;;
26530;SDS011;14201;43.188;24.160;2023-11-21T08:44:17;3.50;;;1.40;;
26530;SDS011;14201;43.188;24.160;2023-11-21T08:46:46;3.60;;;1.58;;
26530;SDS011;14201;43.188;24.160;2023-11-21T08:49:12;2.55;;;1.50;;
26530;SDS011;14201;43.188;24.160;2023-11-21T08:51:38;4.78;;;1.75;;
26530;SDS011;14201;43.188;24.160;2023-11-21T08:54:04;1.80;;;1.30;;
26530;SDS011;14201;43.188;24.160;2023-11-21T08:56:33;4.63;;;1.50;;
26530;SDS011;14201;43.188;24.160;2023-11-21T08:58:59;4.32;;;1.90;;
26530;SDS011;14201;43.188;24.160;2023-11-21T09:01:31;5.20;;;1.70;;
26530;SDS011;14201;43.188;24.160;2023-11-21T09:03:57;2.67;;;1.58;;
26530;SDS011;14201;43.188;24.160;2023-11-21T09:06:23;3.75;;;1.92;;
26530;SDS011;14201;43.188;24.160;2023-11-21T09:08:49;1.92;;;1.35;;
26530;SDS011;14201;43.188;24.160;2023-11-21T09:11:15;3.15;;;1.45;;
26530;SDS011;14201;43.188;24.160;2023-11-21T09:13:41;4.30;;;1.83;;
26530;SDS011;14201;43.188;24.160;2023-11-21T09:16:06;3.15;;;1.70;;
26530;SDS011;14201;43.188;24.160;2023-11-21T09:18:32;3.72;;;1.70;;
26530;SDS011;14201;43.188;24.160;2023-11-21T09:20:58;4.82;;;1.50;;
26530;SDS011;14201;43.188;24.160;2023-11-21T09:23:24;2.72;;;1.50;;
26530;SDS011;14201;43.188;24.160;2023-11-21T09:25:50;3.30;;;1.45;;
26530;SDS011;14201;43.188;24.160;2023-11-21T09:28:17;4.32;;;1.50;;
26530;SDS011;14201;43.188;24.160;2023-11-21T09:30:43;3.22;;;1.52;;
26530;SDS011;14201;43.188;24.160;2023-11-21T09:33:09;3.58;;;1.40;;
26530;SDS011;14201;43.188;24.160;2023-11-21T09:35:38;3.53;;;1.25;;
26530;SDS011;14201;43.188;24.160;2023-11-21T09:38:04;2.75;;;1.25;;
26530;SDS011;14201;43.188;24.160;2023-11-21T09:40:36;3.15;;;1.52;;
26530;SDS011;14201;43.188;24.160;2023-11-21T09:43:06;3.05;;;1.20;;
26530;SDS011;14201;43.188;24.160;2023-11-21T09:45:41;2.95;;;1.20;;
26530;SDS011;14201;43.188;24.160;2023-11-21T09:48:12;3.17;;;1.30;;
26530;SDS011;14201;43.188;24.160;2023-11-21T09:50:39;2.40;;;1.30;;
26530;SDS011;14201;43.188;24.160;2023-11-21T09:55:45;3.45;;;1.30;;
26530;SDS011;14201;43.188;24.160;2023-11-21T09:58:13;4.93;;;1.30;;
26530;SDS011;14201;43.188;24.160;2023-11-21T10:00:39;2.17;;;1.00;;
26530;SDS011;14201;43.188;24.160;2023-11-21T10:03:07;4.05;;;1.23;;
26530;SDS011;14201;43.188;24.160;2023-11-21T10:05:34;2.22;;;1.25;;
26530;SDS011;14201;43.188;24.160;2023-11-21T10:08:00;3.10;;;1.17;;
26530;SDS011;14201;43.188;24.160;2023-11-21T10:10:27;2.42;;;1.20;;
26530;SDS011;14201;43.188;24.160;2023-11-21T10:12:56;2.78;;;1.30;;
26530;SDS011;14201;43.188;24.160;2023-11-21T10:15:22;2.88;;;0.98;;
26530;SDS011;14201;43.188;24.160;2023-11-21T10:17:50;4.70;;;1.05;;
26530;SDS011;14201;43.188;24.160;2023-11-21T10:20:19;2.92;;;1.00;;
26530;SDS011;14201;43.188;24.160;2023-11-21T10:22:45;2.88;;;0.90;;
26530;SDS011;14201;43.188;24.160;2023-11-21T10:25:11;1.80;;;0.85;;
26530;SDS011;14201;43.188;24.160;2023-11-21T10:27:40;2.65;;;0.80;;
26530;SDS011;14201;43.188;24.160;2023-11-21T10:30:09;1.13;;;0.70;;
26530;SDS011;14201;43.188;24.160;2023-11-21T10:32:38;1.42;;;0.80;;
26530;SDS011;14201;43.188;24.160;2023-11-21T10:35:08;2.55;;;0.70;;
26530;SDS011;14201;43.188;24.160;2023-11-21T10:37:40;1.83;;;0.80;;
26530;SDS011;14201;43.188;24.160;2023-11-21T10:40:10;1.83;;;0.70;;
26530;SDS011;14201;43.188;24.160;2023-11-21T10:42:40;0.95;;;0.60;;
26530;SDS011;14201;43.188;24.160;2023-11-21T10:45:09;1.83;;;0.75;;
26530;SDS011;14201;43.188;24.160;2023-11-21T10:47:42;2.08;;;0.80;;
26530;SDS011;14201;43.188;24.160;2023-11-21T10:50:09;2.65;;;0.70;;
26530;SDS011;14201;43.188;24.160;2023-11-21T10:52:36;1.05;;;0.70;;
26530;SDS011;14201;43.188;24.160;2023-11-21T10:55:25;0.82;;;0.50;;
26530;SDS011;14201;43.188;24.160;2023-11-21T10:57:52;0.70;;;0.50;;
26530;SDS011;14201;43.188;24.160;2023-11-21T11:00:19;1.08;;;0.57;;
26530;SDS011;14201;43.188;24.160;2023-11-21T11:02:52;1.45;;;0.70;;
26530;SDS011;14201;43.188;24.160;2023-11-21T11:05:22;2.08;;;0.57;;
26530;SDS011;14201;43.188;24.160;2023-11-21T11:07:55;3.92;;;0.68;;
26530;SDS011;14201;43.188;24.160;2023-11-21T11:10:30;2.25;;;0.70;;
26530;SDS011;14201;43.188;24.160;2023-11-21T11:12:57;1.42;;;0.60;;
26530;SDS011;14201;43.188;24.160;2023-11-21T11:15:24;2.70;;;0.60;;
26530;SDS011;14201;43.188;24.160;2023-11-21T11:17:52;0.70;;;0.60;;
26530;SDS011;14201;43.188;24.160;2023-11-21T11:20:22;2.30;;;0.68;;
26530;SDS011;14201;43.188;24.160;2023-11-21T11:23:09;2.20;;;1.02;;
26530;SDS011;14201;43.188;24.160;2023-11-21T11:25:53;1.27;;;0.50;;
26530;SDS011;14201;43.188;24.160;2023-11-21T11:28:30;0.98;;;0.70;;
26530;SDS011;14201;43.188;24.160;2023-11-21T11:34:15;1.17;;;0.63;;
26530;SDS011;14201;43.188;24.160;2023-11-21T11:37:04;1.25;;;0.65;;
26530;SDS011;14201;43.188;24.160;2023-11-21T11:39:37;2.15;;;0.70;;
26530;SDS011;14201;43.188;24.160;2023-11-21T11:42:06;1.38;;;0.60;;
26530;SDS011;14201;43.188;24.160;2023-11-21T11:47:23;0.73;;;0.57;;
26530;SDS011;14201;43.188;24.160;2023-11-21T11:50:09;1.35;;;0.68;;
26530;SDS011;14201;43.188;24.160;2023-11-21T11:55:16;1.00;;;0.60;;
26530;SDS011;14201;43.188;24.160;2023-11-21T11:57:44;2.17;;;0.70;;
26530;SDS011;14201;43.188;24.160;2023-11-21T12:03:07;1.35;;;0.60;;
26530;SDS011;14201;43.188;24.160;2023-11-21T12:05:34;0.88;;;0.50;;
26530;SDS011;14201;43.188;24.160;2023-11-21T12:08:04;1.03;;;0.40;;
26530;SDS011;14201;43.188;24.160;2023-11-21T12:10:32;1.13;;;0.60;;
26530;SDS011;14201;43.188;24.160;2023-11-21T12:13:02;2.00;;;0.57;;
26530;SDS011;14201;43.188;24.160;2023-11-21T12:15:35;0.90;;;0.50;;
26530;SDS011;14201;43.188;24.160;2023-11-21T12:18:02;1.20;;;0.50;;
26530;SDS011;14201;43.188;24.160;2023-11-21T12:20:28;1.02;;;0.47;;
26530;SDS011;14201;43.188;24.160;2023-11-21T12:22:56;1.23;;;0.70;;
26530;SDS011;14201;43.188;24.160;2023-11-21T12:25:25;4.32;;;1.50;;
26530;SDS011;14201;43.188;24.160;2023-11-21T12:27:57;6.72;;;3.75;;
26530;SDS011;14201;43.188;24.160;2023-11-21T12:30:24;5.80;;;2.83;;
26530;SDS011;14201;43.188;24.160;2023-11-21T12:32:53;4.60;;;2.05;;
26530;SDS011;14201;43.188;24.160;2023-11-21T12:35:24;3.33;;;1.60;;
26530;SDS011;14201;43.188;24.160;2023-11-21T12:37:57;3.08;;;1.40;;
26530;SDS011;14201;43.188;24.160;2023-11-21T12:40:22;10.38;;;1.50;;
26530;SDS011;14201;43.188;24.160;2023-11-21T12:42:49;4.70;;;1.95;;
26530;SDS011;14201;43.188;24.160;2023-11-21T12:47:47;2.40;;;1.63;;
26530;SDS011;14201;43.188;24.160;2023-11-21T12:50:15;5.45;;;1.90;;
26530;SDS011;14201;43.188;24.160;2023-11-21T12:52:48;5.28;;;1.95;;
26530;SDS011;14201;43.188;24.160;2023-11-21T12:55:19;5.40;;;1.95;;
26530;SDS011;14201;43.188;24.160;2023-11-21T12:57:53;3.03;;;1.52;;
26530;SDS011;14201;43.188;24.160;2023-11-21T13:00:42;5.05;;;1.85;;
26530;SDS011;14201;43.188;24.160;2023-11-21T13:03:14;6.38;;;1.95;;
26530;SDS011;14201;43.188;24.160;2023-11-21T13:05:51;4.40;;;2.45;;
26530;SDS011;14201;43.188;24.160;2023-11-21T13:08:19;4.60;;;1.90;;
26530;SDS011;14201;43.188;24.160;2023-11-21T13:10:54;2.47;;;1.50;;
26530;SDS011;14201;43.188;24.160;2023-11-21T13:13:21;4.22;;;1.73;;
26530;SDS011;14201;43.188;24.160;2023-11-21T13:18:21;6.13;;;3.00;;
26530;SDS011;14201;43.188;24.160;2023-11-21T13:20:48;7.03;;;3.85;;
26530;SDS011;14201;43.188;24.160;2023-11-21T13:23:15;7.80;;;3.30;;
26530;SDS011;14201;43.188;24.160;2023-11-21T13:25:42;7.22;;;3.60;;
26530;SDS011;14201;43.188;24.160;2023-11-21T13:28:10;9.50;;;3.55;;
26530;SDS011;14201;43.188;24.160;2023-11-21T13:30:36;11.32;;;3.83;;
26530;SDS011;14201;43.188;24.160;2023-11-21T13:33:05;11.93;;;3.67;;
26530;SDS011;14201;43.188;24.160;2023-11-21T13:35:33;8.50;;;4.40;;
26530;SDS011;14201;43.188;24.160;2023-11-21T13:38:17;8.18;;;3.55;;
26530;SDS011;14201;43.188;24.160;2023-11-21T13:40:52;5.28;;;3.08;;
26530;SDS011;14201;43.188;24.160;2023-11-21T13:43:22;4.57;;;2.90;;
26530;SDS011;14201;43.188;24.160;2023-11-21T13:45:51;6.15;;;2.63;;
26530;SDS011;14201;43.188;24.160;2023-11-21T13:48:26;5.03;;;2.35;;
26530;SDS011;14201;43.188;24.160;2023-11-21T13:51:07;4.07;;;2.05;;
26530;SDS011;14201;43.188;24.160;2023-11-21T13:53:45;2.45;;;1.40;;
26530;SDS011;14201;43.188;24.160;2023-11-21T13:56:17;2.53;;;1.30;;
26530;SDS011;14201;43.188;24.160;2023-11-21T13:58:52;2.15;;;0.82;;
26530;SDS011;14201;43.188;24.160;2023-11-21T14:01:25;1.88;;;0.70;;
26530;SDS011;14201;43.188;24.160;2023-11-21T14:04:17;2.60;;;1.00;;
26530;SDS011;14201;43.188;24.160;2023-11-21T14:06:43;2.47;;;1.20;;
26530;SDS011;14201;43.188;24.160;2023-11-21T14:09:17;2.17;;;0.82;;
26530;SDS011;14201;43.188;24.160;2023-11-21T14:12:00;2.78;;;0.95;;
26530;SDS011;14201;43.188;24.160;2023-11-21T14:14:31;2.25;;;1.05;;
26530;SDS011;14201;43.188;24.160;2023-11-21T14:16:57;2.40;;;0.77;;
26530;SDS011;14201;43.188;24.160;2023-11-21T14:19:23;4.68;;;1.00;;
26530;SDS011;14201;43.188;24.160;2023-11-21T14:21:55;1.23;;;0.85;;
26530;SDS011;14201;43.188;24.160;2023-11-21T14:24:21;1.67;;;0.95;;
26530;SDS011;14201;43.188;24.160;2023-11-21T14:26:51;1.55;;;0.90;;
26530;SDS011;14201;43.188;24.160;2023-11-21T14:29:17;2.67;;;0.90;;
26530;SDS011;14201;43.188;24.160;2023-11-21T14:31:48;1.20;;;0.80;;
26530;SDS011;14201;43.188;24.160;2023-11-21T14:34:16;1.60;;;0.90;;
26530;SDS011;14201;43.188;24.160;2023-11-21T14:36:42;1.15;;;0.90;;
26530;SDS011;14201;43.188;24.160;2023-11-21T14:39:12;1.52;;;0.88;;
26530;SDS011;14201;43.188;24.160;2023-11-21T14:41:51;2.85;;;1.20;;
26530;SDS011;14201;43.188;24.160;2023-11-21T14:44:20;2.08;;;0.98;;
26530;SDS011;14201;43.188;24.160;2023-11-21T14:46:50;2.85;;;0.88;;
26530;SDS011;14201;43.188;24.160;2023-11-21T14:49:16;3.45;;;1.10;;
26530;SDS011;14201;43.188;24.160;2023-11-21T14:51:54;3.10;;;0.85;;
26530;SDS011;14201;43.188;24.160;2023-11-21T14:54:28;3.50;;;0.90;;
26530;SDS011;14201;43.188;24.160;2023-11-21T14:57:08;3.15;;;1.10;;
26530;SDS011;14201;43.188;24.160;2023-11-21T14:59:37;1.95;;;1.00;;
26530;SDS011;14201;43.188;24.160;2023-11-21T15:02:08;1.55;;;0.90;;
26530;SDS011;14201;43.188;24.160;2023-11-21T15:04:40;2.65;;;1.00;;
26530;SDS011;14201;43.188;24.160;2023-11-21T15:07:07;4.22;;;0.85;;
26530;SDS011;14201;43.188;24.160;2023-11-21T15:09:33;3.30;;;1.30;;
26530;SDS011;14201;43.188;24.160;2023-11-21T15:12:00;2.65;;;1.10;;
26530;SDS011;14201;43.188;24.160;2023-11-21T15:14:42;2.70;;;1.10;;
26530;SDS011;14201;43.188;24.160;2023-11-21T15:17:11;1.30;;;0.80;;
26530;SDS011;14201;43.188;24.160;2023-11-21T15:19:43;1.23;;;1.00;;
26530;SDS011;14201;43.188;24.160;2023-11-21T15:22:09;3.95;;;1.05;;
26530;SDS011;14201;43.188;24.160;2023-11-21T15:24:38;4.47;;;1.20;;
26530;SDS011;14201;43.188;24.160;2023-11-21T15:27:05;2.28;;;1.10;;
26530;SDS011;14201;43.188;24.160;2023-11-21T15:29:32;3.75;;;1.40;;
26530;SDS011;14201;43.188;24.160;2023-11-21T15:31:59;4.20;;;1.17;;
26530;SDS011;14201;43.188;24.160;2023-11-21T15:34:25;4.95;;;1.48;;
26530;SDS011;14201;43.188;24.160;2023-11-21T15:36:53;4.05;;;1.10;;
26530;SDS011;14201;43.188;24.160;2023-11-21T15:39:20;4.15;;;1.20;;
26530;SDS011;14201;43.188;24.160;2023-11-21T15:41:58;2.95;;;1.10;;
26530;SDS011;14201;43.188;24.160;2023-11-21T15:44:24;2.47;;;1.00;;
26530;SDS011;14201;43.188;24.160;2023-11-21T15:46:51;2.15;;;1.10;;
26530;SDS011;14201;43.188;24.160;2023-11-21T15:49:20;3.58;;;1.30;;
26530;SDS011;14201;43.188;24.160;2023-11-21T15:51:48;1.73;;;1.05;;
26530;SDS011;14201;43.188;24.160;2023-11-21T15:54:23;1.60;;;1.10;;
26530;SDS011;14201;43.188;24.160;2023-11-21T15:56:52;2.20;;;1.08;;
26530;SDS011;14201;43.188;24.160;2023-11-21T15:59:20;4.97;;;1.20;;
26530;SDS011;14201;43.188;24.160;2023-11-21T16:01:49;1.15;;;1.02;;
26530;SDS011;14201;43.188;24.160;2023-11-21T16:04:15;2.90;;;1.20;;
26530;SDS011;14201;43.188;24.160;2023-11-21T16:06:45;3.60;;;1.25;;
26530;SDS011;14201;43.188;24.160;2023-11-21T16:09:12;1.80;;;1.17;;
26530;SDS011;14201;43.188;24.160;2023-11-21T16:11:48;2.92;;;1.70;;
26530;SDS011;14201;43.188;24.160;2023-11-21T16:14:16;4.32;;;1.67;;
26530;SDS011;14201;43.188;24.160;2023-11-21T16:16:47;4.60;;;1.35;;
26530;SDS011;14201;43.188;24.160;2023-11-21T16:19:16;2.53;;;1.20;;
26530;SDS011;14201;43.188;24.160;2023-11-21T16:21:42;3.65;;;1.25;;
26530;SDS011;14201;43.188;24.160;2023-11-21T16:24:10;2.80;;;1.15;;
26530;SDS011;14201;43.188;24.160;2023-11-21T16:26:36;1.90;;;1.38;;
26530;SDS011;14201;43.188;24.160;2023-11-21T16:29:02;3.10;;;2.05;;
26530;SDS011;14201;43.188;24.160;2023-11-21T16:31:29;2.78;;;2.20;;
26530;SDS011;14201;43.188;24.160;2023-11-21T16:33:54;5.05;;;1.85;;
26530;SDS011;14201;43.188;24.160;2023-11-21T16:36:20;4.68;;;1.85;;
26530;SDS011;14201;43.188;24.160;2023-11-21T16:38:46;6.82;;;1.92;;
26530;SDS011;14201;43.188;24.160;2023-11-21T16:41:11;6.80;;;3.10;;
26530;SDS011;14201;43.188;24.160;2023-11-21T16:43:37;5.35;;;3.55;;
26530;SDS011;14201;43.188;24.160;2023-11-21T16:46:02;6.32;;;3.17;;
26530;SDS011;14201;43.188;24.160;2023-11-21T16:48:28;5.88;;;3.63;;
26530;SDS011;14201;43.188;24.160;2023-11-21T16:50:54;6.43;;;3.60;;
26530;SDS011;14201;43.188;24.160;2023-11-21T16:53:20;6.07;;;3.60;;
26530;SDS011;14201;43.188;24.160;2023-11-21T16:55:45;6.72;;;3.92;;
26530;SDS011;14201;43.188;24.160;2023-11-21T16:58:11;5.93;;;3.88;;
26530;SDS011;14201;43.188;24.160;2023-11-21T17:00:36;9.45;;;3.72;;
26530;SDS011;14201;43.188;24.160;2023-11-21T17:03:02;7.50;;;3.40;;
26530;SDS011;14201;43.188;24.160;2023-11-21T17:05:29;4.60;;;2.70;;
26530;SDS011;14201;43.188;24.160;2023-11-21T17:07:56;7.30;;;2.65;;
26530;SDS011;14201;43.188;24.160;2023-11-21T17:10:22;5.03;;;2.88;;
26530;SDS011;14201;43.188;24.160;2023-11-21T17:12:47;4.80;;;2.60;;
26530;SDS011;14201;43.188;24.160;2023-11-21T17:15:14;4.88;;;2.55;;
26530;SDS011;14201;43.188;24.160;2023-11-21T17:17:41;7.70;;;3.25;;
26530;SDS011;14201;43.188;24.160;2023-11-21T17:20:08;5.28;;;3.35;;
26530;SDS011;14201;43.188;24.160;2023-11-21T17:22:35;6.63;;;3.97;;
26530;SDS011;14201;43.188;24.160;2023-11-21T17:25:01;6.28;;;4.05;;
26530;SDS011;14201;43.188;24.160;2023-11-21T17:27:27;10.00;;;4.22;;
26530;SDS011;14201;43.188;24.160;2023-11-21T17:29:55;7.68;;;4.82;;
26530;SDS011;14201;43.188;24.160;2023-11-21T17:32:21;6.60;;;4.55;;
26530;SDS011;14201;43.188;24.160;2023-11-21T17:34:47;8.23;;;4.50;;
26530;SDS011;14201;43.188;24.160;2023-11-21T17:37:13;4.85;;;2.25;;
26530;SDS011;14201;43.188;24.160;2023-11-21T17:39:41;5.63;;;2.50;;
26530;SDS011;14201;43.188;24.160;2023-11-21T17:42:07;5.13;;;3.13;;
26530;SDS011;14201;43.188;24.160;2023-11-21T17:44:33;4.93;;;3.30;;
26530;SDS011;14201;43.188;24.160;2023-11-21T17:47:00;4.65;;;2.97;;
26530;SDS011;14201;43.188;24.160;2023-11-21T17:49:27;6.10;;;3.78;;
26530;SDS011;14201;43.188;24.160;2023-11-21T17:51:52;10.95;;;4.35;;
26530;SDS011;14201;43.188;24.160;2023-11-21T17:54:19;6.25;;;4.32;;
26530;SDS011;14201;43.188;24.160;2023-11-21T17:56:45;5.75;;;3.58;;
26530;SDS011;14201;43.188;24.160;2023-11-21T17:59:13;8.60;;;4.20;;
26530;SDS011;14201;43.188;24.160;2023-11-21T18:01:41;9.55;;;4.88;;
26530;SDS011;14201;43.188;24.160;2023-11-21T18:04:07;6.95;;;4.47;;
26530;SDS011;14201;43.188;24.160;2023-11-21T18:06:35;6.75;;;4.10;;
26530;SDS011;14201;43.188;24.160;2023-11-21T18:09:01;8.70;;;4.28;;
26530;SDS011;14201;43.188;24.160;2023-11-21T18:11:29;10.60;;;4.30;;
26530;SDS011;14201;43.188;24.160;2023-11-21T18:13:55;7.72;;;4.20;;
26530;SDS011;14201;43.188;24.160;2023-11-21T18:16:21;7.03;;;4.50;;
26530;SDS011;14201;43.188;24.160;2023-11-21T18:18:46;7.97;;;3.78;;
26530;SDS011;14201;43.188;24.160;2023-11-21T18:21:12;8.10;;;3.85;;
26530;SDS011;14201;43.188;24.160;2023-11-21T18:23:38;6.88;;;3.42;;
26530;SDS011;14201;43.188;24.160;2023-11-21T18:26:04;6.93;;;3.55;;
26530;SDS011;14201;43.188;24.160;2023-11-21T18:28:29;6.78;;;3.70;;
26530;SDS011;14201;43.188;24.160;2023-11-21T18:30:55;5.65;;;3.50;;
26530;SDS011;14201;43.188;24.160;2023-11-21T18:33:21;8.35;;;3.70;;
26530;SDS011;14201;43.188;24.160;2023-11-21T18:35:46;6.07;;;3.92;;
26530;SDS011;14201;43.188;24.160;2023-11-21T18:38:13;7.00;;;3.40;;
26530;SDS011;14201;43.188;24.160;2023-11-21T18:40:38;6.45;;;2.90;;
26530;SDS011;14201;43.188;24.160;2023-11-21T18:43:04;5.32;;;3.03;;
26530;SDS011;14201;43.188;24.160;2023-11-21T18:45:30;4.30;;;3.00;;
26530;SDS011;14201;43.188;24.160;2023-11-21T18:47:56;6.18;;;3.35;;
26530;SDS011;14201;43.188;24.160;2023-11-21T18:50:22;7.35;;;3.47;;
26530;SDS011;14201;43.188;24.160;2023-11-21T18:52:48;7.47;;;4.00;;
26530;SDS011;14201;43.188;24.160;2023-11-21T18:55:17;6.25;;;3.58;;
26530;SDS011;14201;43.188;24.160;2023-11-21T18:57:43;7.30;;;4.10;;
26530;SDS011;14201;43.188;24.160;2023-11-21T19:00:08;7.32;;;3.92;;
26530;SDS011;14201;43.188;24.160;2023-11-21T19:02:35;7.45;;;4.28;;
26530;SDS011;14201;43.188;24.160;2023-11-21T19:05:01;5.43;;;3.50;;
26530;SDS011;14201;43.188;24.160;2023-11-21T19:07:30;4.88;;;3.20;;
26530;SDS011;14201;43.188;24.160;2023-11-21T19:12:38;6.35;;;3.38;;
26530;SDS011;14201;43.188;24.160;2023-11-21T19:15:05;6.32;;;3.55;;
26530;SDS011;14201;43.188;24.160;2023-11-21T19:17:38;7.55;;;3.50;;
26530;SDS011;14201;43.188;24.160;2023-11-21T19:20:05;8.52;;;3.67;;
26530;SDS011;14201;43.188;24.160;2023-11-21T19:22:33;7.32;;;3.85;;
26530;SDS011;14201;43.188;24.160;2023-11-21T19:25:01;8.80;;;3.85;;
26530;SDS011;14201;43.188;24.160;2023-11-21T19:27:29;7.50;;;3.85;;
26530;SDS011;14201;43.188;24.160;2023-11-21T19:29:57;8.98;;;3.90;;
26530;SDS011;14201;43.188;24.160;2023-11-21T19:32:23;6.55;;;3.70;;
26530;SDS011;14201;43.188;24.160;2023-11-21T19:34:49;6.90;;;3.67;;
26530;SDS011;14201;43.188;24.160;2023-11-21T19:37:15;9.52;;;3.67;;
26530;SDS011;14201;43.188;24.160;2023-11-21T19:39:40;8.57;;;3.95;;
26530;SDS011;14201;43.188;24.160;2023-11-21T19:42:07;10.32;;;4.20;;
26530;SDS011;14201;43.188;24.160;2023-11-21T19:44:33;6.38;;;3.63;;
26530;SDS011;14201;43.188;24.160;2023-11-21T19:47:01;6.55;;;4.20;;
26530;SDS011;14201;43.188;24.160;2023-11-21T19:49:27;7.97;;;4.68;;
26530;SDS011;14201;43.188;24.160;2023-11-21T19:51:53;7.72;;;4.25;;
26530;SDS011;14201;43.188;24.160;2023-11-21T19:54:19;10.40;;;4.45;;
26530;SDS011;14201;43.188;24.160;2023-11-21T19:56:45;8.55;;;3.47;;
26530;SDS011;14201;43.188;24.160;2023-11-21T19:59:10;9.20;;;4.05;;
26530;SDS011;14201;43.188;24.160;2023-11-21T20:01:36;13.88;;;5.07;;
26530;SDS011;14201;43.188;24.160;2023-11-21T20:04:02;13.30;;;5.18;;
26530;SDS011;14201;43.188;24.160;2023-11-21T20:06:27;12.65;;;5.20;;
26530;SDS011;14201;43.188;24.160;2023-11-21T20:08:53;15.45;;;5.38;;
26530;SDS011;14201;43.188;24.160;2023-11-21T20:11:19;8.85;;;5.43;;
26530;SDS011;14201;43.188;24.160;2023-11-21T20:13:49;8.52;;;4.43;;
26530;SDS011;14201;43.188;24.160;2023-11-21T20:16:15;7.35;;;4.97;;
26530;SDS011;14201;43.188;24.160;2023-11-21T20:18:41;8.15;;;4.85;;
26530;SDS011;14201;43.188;24.160;2023-11-21T20:21:07;10.73;;;4.97;;
26530;SDS011;14201;43.188;24.160;2023-11-21T20:23:34;15.07;;;6.13;;
26530;SDS011;14201;43.188;24.160;2023-11-21T20:26:01;17.95;;;6.45;;
26530;SDS011;14201;43.188;24.160;2023-11-21T20:28:27;16.65;;;7.80;;
26530;SDS011;14201;43.188;24.160;2023-11-21T20:30:53;13.20;;;5.72;;
26530;SDS011;14201;43.188;24.160;2023-11-21T20:33:19;17.58;;;5.13;;
26530;SDS011;14201;43.188;24.160;2023-11-21T20:35:44;17.33;;;5.15;;
26530;SDS011;14201;43.188;24.160;2023-11-21T20:38:12;13.50;;;4.88;;
26530;SDS011;14201;43.188;24.160;2023-11-21T20:40:38;13.15;;;4.72;;
26530;SDS011;14201;43.188;24.160;2023-11-21T20:43:04;12.75;;;5.00;;
26530;SDS011;14201;43.188;24.160;2023-11-21T20:45:31;17.50;;;4.70;;
26530;SDS011;14201;43.188;24.160;2023-11-21T20:47:57;10.85;;;5.10;;
26530;SDS011;14201;43.188;24.160;2023-11-21T20:50:23;10.48;;;5.25;;
26530;SDS011;14201;43.188;24.160;2023-11-21T20:52:49;15.15;;;5.47;;
26530;SDS011;14201;43.188;24.160;2023-11-21T20:55:18;12.45;;;5.28;;
26530;SDS011;14201;43.188;24.160;2023-11-21T20:57:45;11.57;;;5.68;;
26530;SDS011;14201;43.188;24.160;2023-11-21T21:00:11;10.23;;;5.28;;
26530;SDS011;14201;43.188;24.160;2023-11-21T21:02:40;22.48;;;6.53;;
26530;SDS011;14201;43.188;24.160;2023-11-21T21:05:06;10.18;;;5.93;;
26530;SDS011;14201;43.188;24.160;2023-11-21T21:07:34;12.07;;;5.63;;
26530;SDS011;14201;43.188;24.160;2023-11-21T21:09:59;7.22;;;4.38;;
26530;SDS011;14201;43.188;24.160;2023-11-21T21:12:25;9.05;;;4.63;;
26530;SDS011;14201;43.188;24.160;2023-11-21T21:14:51;10.85;;;5.00;;
26530;SDS011;14201;43.188;24.160;2023-11-21T21:17:17;8.90;;;4.13;;
26530;SDS011;14201;43.188;24.160;2023-11-21T21:19:46;10.68;;;6.00;;
26530;SDS011;14201;43.188;24.160;2023-11-21T21:22:12;17.70;;;5.13;;
26530;SDS011;14201;43.188;24.160;2023-11-21T21:24:39;9.73;;;4.97;;
26530;SDS011;14201;43.188;24.160;2023-11-21T21:27:05;12.60;;;4.82;;
26530;SDS011;14201;43.188;24.160;2023-11-21T21:29:31;15.27;;;5.32;;
26530;SDS011;14201;43.188;24.160;2023-11-21T21:31:57;9.85;;;5.07;;
26530;SDS011;14201;43.188;24.160;2023-11-21T21:34:22;10.57;;;5.80;;
26530;SDS011;14201;43.188;24.160;2023-11-21T21:36:50;12.20;;;5.18;;
26530;SDS011;14201;43.188;24.160;2023-11-21T21:39:16;13.57;;;4.93;;
26530;SDS011;14201;43.188;24.160;2023-11-21T21:41:44;9.38;;;4.63;;
26530;SDS011;14201;43.188;24.160;2023-11-21T21:44:10;10.95;;;4.60;;
26530;SDS011;14201;43.188;24.160;2023-11-21T21:46:36;8.90;;;4.55;;